sensor_id;sensor_type;location;lat;lon;timestamp;P1;durP1;ratioP1;P2;durP2;ratioP2
75437;SDS011;64015;49.392;15.582;2022-11-20T00:00:24;25.75;;;9.63;;
75437;SDS011;64015;49.392;15.582;2022-11-20T00:03:10;31.10;;;10.82;;
75437;SDS011;64015;49.392;15.582;2022-11-20T00:05:35;26.15;;;10.18;;
75437;SDS011;64015;49.392;15.582;2022-11-20T00:08:01;29.25;;;10.10;;
75437;SDS011;64015;49.392;15.582;2022-11-20T00:10:26;28.15;;;10.43;;
75437;SDS011;64015;49.392;15.582;2022-11-20T00:12:52;30.65;;;10.32;;
75437;SDS011;64015;49.392;15.582;2022-11-20T00:15:17;28.00;;;9.90;;
75437;SDS011;64015;49.392;15.582;2022-11-20T00:17:43;25.35;;;10.23;;
75437;SDS011;64015;49.392;15.582;2022-11-20T00:20:09;28.63;;;9.80;;
75437;SDS011;64015;49.392;15.582;2022-11-20T00:22:35;30.25;;;10.27;;
75437;SDS011;64015;49.392;15.582;2022-11-20T00:25:00;29.30;;;9.68;;
75437;SDS011;64015;49.392;15.582;2022-11-20T00:27:26;27.92;;;10.70;;
75437;SDS011;64015;49.392;15.582;2022-11-20T00:29:52;29.20;;;10.68;;
75437;SDS011;64015;49.392;15.582;2022-11-20T00:32:17;32.08;;;11.18;;
75437;SDS011;64015;49.392;15.582;2022-11-20T00:34:43;30.13;;;10.57;;
75437;SDS011;64015;49.392;15.582;2022-11-20T00:37:08;27.95;;;10.75;;
75437;SDS011;64015;49.392;15.582;2022-11-20T00:39:34;25.25;;;9.55;;
75437;SDS011;64015;49.392;15.582;2022-11-20T00:41:59;29.00;;;11.18;;
75437;SDS011;64015;49.392;15.582;2022-11-20T00:44:25;23.63;;;10.15;;
75437;SDS011;64015;49.392;15.582;2022-11-20T00:46:55;25.98;;;9.95;;
75437;SDS011;64015;49.392;15.582;2022-11-20T00:49:20;27.20;;;10.23;;
75437;SDS011;64015;49.392;15.582;2022-11-20T00:51:46;26.63;;;10.90;;
75437;SDS011;64015;49.392;15.582;2022-11-20T00:54:11;28.67;;;10.27;;
75437;SDS011;64015;49.392;15.582;2022-11-20T00:56:37;28.05;;;10.48;;
75437;SDS011;64015;49.392;15.582;2022-11-20T00:59:02;29.95;;;10.68;;
75437;SDS011;64015;49.392;15.582;2022-11-20T01:01:28;29.02;;;11.43;;
75437;SDS011;64015;49.392;15.582;2022-11-20T01:03:55;30.88;;;11.38;;
75437;SDS011;64015;49.392;15.582;2022-11-20T01:06:30;32.97;;;12.00;;
75437;SDS011;64015;49.392;15.582;2022-11-20T01:11:24;33.00;;;9.93;;
75437;SDS011;64015;49.392;15.582;2022-11-20T01:13:52;26.20;;;9.68;;
75437;SDS011;64015;49.392;15.582;2022-11-20T01:16:20;28.33;;;11.77;;
75437;SDS011;64015;49.392;15.582;2022-11-20T01:18:51;28.60;;;11.13;;
75437;SDS011;64015;49.392;15.582;2022-11-20T01:21:25;25.27;;;9.63;;
75437;SDS011;64015;49.392;15.582;2022-11-20T01:23:53;24.85;;;10.00;;
75437;SDS011;64015;49.392;15.582;2022-11-20T01:26:21;32.17;;;11.25;;
75437;SDS011;64015;49.392;15.582;2022-11-20T01:28:48;31.80;;;11.32;;
75437;SDS011;64015;49.392;15.582;2022-11-20T01:31:16;26.67;;;10.13;;
75437;SDS011;64015;49.392;15.582;2022-11-20T01:33:45;25.80;;;11.00;;
75437;SDS011;64015;49.392;15.582;2022-11-20T01:36:13;26.83;;;10.15;;
75437;SDS011;64015;49.392;15.582;2022-11-20T01:38:40;27.10;;;10.23;;
75437;SDS011;64015;49.392;15.582;2022-11-20T01:41:13;24.05;;;9.45;;
75437;SDS011;64015;49.392;15.582;2022-11-20T01:44:00;24.05;;;8.38;;
75437;SDS011;64015;49.392;15.582;2022-11-20T01:46:26;27.90;;;10.13;;
75437;SDS011;64015;49.392;15.582;2022-11-20T01:51:57;22.73;;;9.00;;
75437;SDS011;64015;49.392;15.582;2022-11-20T01:54:31;25.48;;;9.07;;
75437;SDS011;64015;49.392;15.582;2022-11-20T01:57:01;26.02;;;9.27;;
75437;SDS011;64015;49.392;15.582;2022-11-20T01:59:32;25.05;;;9.02;;
75437;SDS011;64015;49.392;15.582;2022-11-20T02:01:59;27.20;;;10.77;;
75437;SDS011;64015;49.392;15.582;2022-11-20T02:04:24;25.75;;;10.48;;
75437;SDS011;64015;49.392;15.582;2022-11-20T02:07:00;24.25;;;8.73;;
75437;SDS011;64015;49.392;15.582;2022-11-20T02:09:27;22.05;;;8.52;;
75437;SDS011;64015;49.392;15.582;2022-11-20T02:11:53;27.33;;;9.25;;
75437;SDS011;64015;49.392;15.582;2022-11-20T02:14:20;22.73;;;8.98;;
75437;SDS011;64015;49.392;15.582;2022-11-20T02:16:47;20.60;;;8.07;;
75437;SDS011;64015;49.392;15.582;2022-11-20T02:19:26;24.50;;;9.23;;
75437;SDS011;64015;49.392;15.582;2022-11-20T02:24:32;22.60;;;8.60;;
75437;SDS011;64015;49.392;15.582;2022-11-20T02:32:03;23.23;;;8.95;;
75437;SDS011;64015;49.392;15.582;2022-11-20T02:34:29;23.58;;;8.55;;
75437;SDS011;64015;49.392;15.582;2022-11-20T02:36:55;24.67;;;8.82;;
75437;SDS011;64015;49.392;15.582;2022-11-20T02:39:22;23.65;;;9.40;;
75437;SDS011;64015;49.392;15.582;2022-11-20T02:41:51;25.67;;;9.02;;
75437;SDS011;64015;49.392;15.582;2022-11-20T02:44:18;22.17;;;8.73;;
75437;SDS011;64015;49.392;15.582;2022-11-20T02:46:44;22.85;;;8.50;;
75437;SDS011;64015;49.392;15.582;2022-11-20T02:49:10;27.38;;;8.93;;
75437;SDS011;64015;49.392;15.582;2022-11-20T02:51:36;26.58;;;9.15;;
75437;SDS011;64015;49.392;15.582;2022-11-20T02:54:03;20.10;;;8.18;;
75437;SDS011;64015;49.392;15.582;2022-11-20T02:56:29;21.23;;;7.65;;
75437;SDS011;64015;49.392;15.582;2022-11-20T02:58:54;25.42;;;9.98;;
75437;SDS011;64015;49.392;15.582;2022-11-20T03:01:21;24.55;;;8.77;;
75437;SDS011;64015;49.392;15.582;2022-11-20T03:03:46;19.85;;;8.40;;
75437;SDS011;64015;49.392;15.582;2022-11-20T03:06:14;27.38;;;9.63;;
75437;SDS011;64015;49.392;15.582;2022-11-20T03:08:42;24.35;;;8.80;;
75437;SDS011;64015;49.392;15.582;2022-11-20T03:11:08;23.55;;;9.10;;
75437;SDS011;64015;49.392;15.582;2022-11-20T03:13:34;28.83;;;10.10;;
75437;SDS011;64015;49.392;15.582;2022-11-20T03:16:04;24.35;;;9.77;;
75437;SDS011;64015;49.392;15.582;2022-11-20T03:18:31;22.58;;;8.60;;
75437;SDS011;64015;49.392;15.582;2022-11-20T03:20:57;24.63;;;9.55;;
75437;SDS011;64015;49.392;15.582;2022-11-20T03:23:24;23.48;;;9.85;;
75437;SDS011;64015;49.392;15.582;2022-11-20T03:25:49;22.55;;;9.55;;
75437;SDS011;64015;49.392;15.582;2022-11-20T03:28:15;23.00;;;8.88;;
75437;SDS011;64015;49.392;15.582;2022-11-20T03:30:40;24.65;;;10.48;;
75437;SDS011;64015;49.392;15.582;2022-11-20T03:33:06;24.83;;;9.75;;
75437;SDS011;64015;49.392;15.582;2022-11-20T03:35:32;25.80;;;10.25;;
75437;SDS011;64015;49.392;15.582;2022-11-20T03:37:57;25.65;;;9.77;;
75437;SDS011;64015;49.392;15.582;2022-11-20T03:40:23;24.00;;;9.30;;
75437;SDS011;64015;49.392;15.582;2022-11-20T03:42:48;24.17;;;9.70;;
75437;SDS011;64015;49.392;15.582;2022-11-20T03:45:15;26.27;;;9.52;;
75437;SDS011;64015;49.392;15.582;2022-11-20T03:47:42;22.90;;;9.70;;
75437;SDS011;64015;49.392;15.582;2022-11-20T03:50:08;24.95;;;10.18;;
75437;SDS011;64015;49.392;15.582;2022-11-20T03:52:35;25.77;;;9.27;;
75437;SDS011;64015;49.392;15.582;2022-11-20T03:55:01;23.38;;;8.98;;
75437;SDS011;64015;49.392;15.582;2022-11-20T03:57:27;27.02;;;11.70;;
75437;SDS011;64015;49.392;15.582;2022-11-20T03:59:52;21.60;;;8.85;;
75437;SDS011;64015;49.392;15.582;2022-11-20T04:02:18;22.70;;;8.63;;
75437;SDS011;64015;49.392;15.582;2022-11-20T04:04:43;22.80;;;7.63;;
75437;SDS011;64015;49.392;15.582;2022-11-20T04:07:09;24.15;;;8.95;;
75437;SDS011;64015;49.392;15.582;2022-11-20T04:09:35;21.33;;;8.82;;
75437;SDS011;64015;49.392;15.582;2022-11-20T04:12:00;30.13;;;9.85;;
75437;SDS011;64015;49.392;15.582;2022-11-20T04:14:26;20.67;;;8.73;;
75437;SDS011;64015;49.392;15.582;2022-11-20T04:16:51;28.75;;;11.50;;
75437;SDS011;64015;49.392;15.582;2022-11-20T04:19:17;24.10;;;8.93;;
75437;SDS011;64015;49.392;15.582;2022-11-20T04:21:43;28.67;;;10.48;;
75437;SDS011;64015;49.392;15.582;2022-11-20T04:24:09;25.05;;;10.35;;
75437;SDS011;64015;49.392;15.582;2022-11-20T04:26:38;25.00;;;9.15;;
75437;SDS011;64015;49.392;15.582;2022-11-20T04:29:03;27.48;;;9.60;;
75437;SDS011;64015;49.392;15.582;2022-11-20T04:31:30;29.20;;;9.35;;
75437;SDS011;64015;49.392;15.582;2022-11-20T04:34:02;25.33;;;8.70;;
75437;SDS011;64015;49.392;15.582;2022-11-20T04:36:29;26.25;;;8.93;;
75437;SDS011;64015;49.392;15.582;2022-11-20T04:38:56;22.02;;;8.38;;
75437;SDS011;64015;49.392;15.582;2022-11-20T04:41:24;25.02;;;8.80;;
75437;SDS011;64015;49.392;15.582;2022-11-20T04:44:08;26.13;;;9.77;;
75437;SDS011;64015;49.392;15.582;2022-11-20T04:46:35;29.67;;;10.75;;
75437;SDS011;64015;49.392;15.582;2022-11-20T04:49:07;27.45;;;9.63;;
75437;SDS011;64015;49.392;15.582;2022-11-20T04:51:33;29.05;;;10.50;;
75437;SDS011;64015;49.392;15.582;2022-11-20T04:53:59;30.13;;;11.05;;
75437;SDS011;64015;49.392;15.582;2022-11-20T04:56:25;24.10;;;9.60;;
75437;SDS011;64015;49.392;15.582;2022-11-20T04:58:50;27.63;;;10.18;;
75437;SDS011;64015;49.392;15.582;2022-11-20T05:01:18;32.80;;;10.20;;
75437;SDS011;64015;49.392;15.582;2022-11-20T05:03:46;27.75;;;9.60;;
75437;SDS011;64015;49.392;15.582;2022-11-20T05:06:13;28.83;;;10.68;;
75437;SDS011;64015;49.392;15.582;2022-11-20T05:08:40;28.65;;;9.82;;
75437;SDS011;64015;49.392;15.582;2022-11-20T05:11:08;31.90;;;12.15;;
75437;SDS011;64015;49.392;15.582;2022-11-20T05:13:35;24.05;;;8.63;;
75437;SDS011;64015;49.392;15.582;2022-11-20T05:16:05;26.55;;;9.85;;
75437;SDS011;64015;49.392;15.582;2022-11-20T05:18:33;25.00;;;9.23;;
75437;SDS011;64015;49.392;15.582;2022-11-20T05:20:59;26.83;;;10.27;;
75437;SDS011;64015;49.392;15.582;2022-11-20T05:23:26;28.10;;;9.45;;
75437;SDS011;64015;49.392;15.582;2022-11-20T05:25:52;29.45;;;11.18;;
75437;SDS011;64015;49.392;15.582;2022-11-20T05:28:19;26.58;;;10.05;;
75437;SDS011;64015;49.392;15.582;2022-11-20T05:30:45;27.30;;;10.18;;
75437;SDS011;64015;49.392;15.582;2022-11-20T05:33:10;24.50;;;9.23;;
75437;SDS011;64015;49.392;15.582;2022-11-20T05:35:36;26.75;;;11.25;;
75437;SDS011;64015;49.392;15.582;2022-11-20T05:38:02;31.70;;;10.80;;
75437;SDS011;64015;49.392;15.582;2022-11-20T05:40:27;28.92;;;10.50;;
75437;SDS011;64015;49.392;15.582;2022-11-20T05:42:53;29.15;;;10.02;;
75437;SDS011;64015;49.392;15.582;2022-11-20T05:45:18;27.52;;;10.77;;
75437;SDS011;64015;49.392;15.582;2022-11-20T05:47:44;35.13;;;11.25;;
75437;SDS011;64015;49.392;15.582;2022-11-20T05:50:09;28.30;;;11.10;;
75437;SDS011;64015;49.392;15.582;2022-11-20T05:52:35;28.73;;;9.95;;
75437;SDS011;64015;49.392;15.582;2022-11-20T05:55:01;31.65;;;11.05;;
75437;SDS011;64015;49.392;15.582;2022-11-20T05:57:27;32.10;;;11.30;;
75437;SDS011;64015;49.392;15.582;2022-11-20T05:59:52;28.17;;;10.57;;
75437;SDS011;64015;49.392;15.582;2022-11-20T06:02:18;28.98;;;10.77;;
75437;SDS011;64015;49.392;15.582;2022-11-20T06:04:45;32.35;;;10.75;;
75437;SDS011;64015;49.392;15.582;2022-11-20T06:07:10;32.25;;;10.63;;
75437;SDS011;64015;49.392;15.582;2022-11-20T06:09:36;36.28;;;11.80;;
75437;SDS011;64015;49.392;15.582;2022-11-20T06:12:01;32.78;;;10.88;;
75437;SDS011;64015;49.392;15.582;2022-11-20T06:14:27;33.42;;;11.38;;
75437;SDS011;64015;49.392;15.582;2022-11-20T06:16:53;27.33;;;10.45;;
75437;SDS011;64015;49.392;15.582;2022-11-20T06:19:18;33.20;;;11.05;;
75437;SDS011;64015;49.392;15.582;2022-11-20T06:21:44;33.33;;;11.55;;
75437;SDS011;64015;49.392;15.582;2022-11-20T06:24:09;32.70;;;11.02;;
75437;SDS011;64015;49.392;15.582;2022-11-20T06:26:36;29.10;;;10.27;;
75437;SDS011;64015;49.392;15.582;2022-11-20T06:29:01;34.70;;;12.02;;
75437;SDS011;64015;49.392;15.582;2022-11-20T06:31:27;33.40;;;10.02;;
75437;SDS011;64015;49.392;15.582;2022-11-20T06:33:53;32.30;;;10.73;;
75437;SDS011;64015;49.392;15.582;2022-11-20T06:36:19;30.30;;;10.93;;
75437;SDS011;64015;49.392;15.582;2022-11-20T06:41:13;29.60;;;10.05;;
75437;SDS011;64015;49.392;15.582;2022-11-20T06:43:40;26.88;;;10.45;;
75437;SDS011;64015;49.392;15.582;2022-11-20T06:46:06;34.92;;;11.68;;
75437;SDS011;64015;49.392;15.582;2022-11-20T06:48:34;29.95;;;10.60;;
75437;SDS011;64015;49.392;15.582;2022-11-20T06:50:59;30.80;;;12.70;;
75437;SDS011;64015;49.392;15.582;2022-11-20T06:53:28;34.38;;;12.02;;
75437;SDS011;64015;49.392;15.582;2022-11-20T06:55:55;28.40;;;10.77;;
75437;SDS011;64015;49.392;15.582;2022-11-20T06:58:21;30.83;;;10.57;;
75437;SDS011;64015;49.392;15.582;2022-11-20T07:00:48;28.90;;;11.43;;
75437;SDS011;64015;49.392;15.582;2022-11-20T07:03:14;32.60;;;11.77;;
75437;SDS011;64015;49.392;15.582;2022-11-20T07:05:40;33.85;;;13.18;;
75437;SDS011;64015;49.392;15.582;2022-11-20T07:08:05;32.65;;;10.13;;
75437;SDS011;64015;49.392;15.582;2022-11-20T07:10:31;29.27;;;10.00;;
75437;SDS011;64015;49.392;15.582;2022-11-20T07:12:57;38.45;;;11.93;;
75437;SDS011;64015;49.392;15.582;2022-11-20T07:15:24;31.77;;;11.63;;
75437;SDS011;64015;49.392;15.582;2022-11-20T07:17:50;29.13;;;10.77;;
75437;SDS011;64015;49.392;15.582;2022-11-20T07:20:16;30.42;;;11.32;;
75437;SDS011;64015;49.392;15.582;2022-11-20T07:22:41;31.85;;;9.48;;
75437;SDS011;64015;49.392;15.582;2022-11-20T07:25:08;28.25;;;10.77;;
75437;SDS011;64015;49.392;15.582;2022-11-20T07:27:34;27.67;;;10.40;;
75437;SDS011;64015;49.392;15.582;2022-11-20T07:30:00;31.63;;;11.50;;
75437;SDS011;64015;49.392;15.582;2022-11-20T07:32:26;33.28;;;12.95;;
75437;SDS011;64015;49.392;15.582;2022-11-20T07:34:52;33.17;;;11.40;;
75437;SDS011;64015;49.392;15.582;2022-11-20T07:37:17;22.42;;;9.52;;
75437;SDS011;64015;49.392;15.582;2022-11-20T07:39:43;31.48;;;11.75;;
75437;SDS011;64015;49.392;15.582;2022-11-20T07:42:09;31.80;;;10.75;;
75437;SDS011;64015;49.392;15.582;2022-11-20T07:44:35;29.83;;;11.32;;
75437;SDS011;64015;49.392;15.582;2022-11-20T07:47:00;27.23;;;10.52;;
75437;SDS011;64015;49.392;15.582;2022-11-20T07:49:27;26.90;;;10.25;;
75437;SDS011;64015;49.392;15.582;2022-11-20T07:51:52;34.10;;;11.85;;
75437;SDS011;64015;49.392;15.582;2022-11-20T07:54:19;35.58;;;12.50;;
75437;SDS011;64015;49.392;15.582;2022-11-20T07:56:46;31.20;;;11.75;;
75437;SDS011;64015;49.392;15.582;2022-11-20T07:59:12;25.95;;;10.18;;
75437;SDS011;64015;49.392;15.582;2022-11-20T08:01:38;28.27;;;10.75;;
75437;SDS011;64015;49.392;15.582;2022-11-20T08:04:08;27.63;;;9.82;;
75437;SDS011;64015;49.392;15.582;2022-11-20T08:06:34;29.38;;;11.65;;
75437;SDS011;64015;49.392;15.582;2022-11-20T08:09:01;26.50;;;10.00;;
75437;SDS011;64015;49.392;15.582;2022-11-20T08:11:27;32.75;;;12.35;;
75437;SDS011;64015;49.392;15.582;2022-11-20T08:14:11;26.90;;;10.13;;
75437;SDS011;64015;49.392;15.582;2022-11-20T08:16:44;29.60;;;10.23;;
75437;SDS011;64015;49.392;15.582;2022-11-20T08:19:14;28.05;;;10.43;;
75437;SDS011;64015;49.392;15.582;2022-11-20T08:21:40;29.48;;;10.73;;
75437;SDS011;64015;49.392;15.582;2022-11-20T08:24:06;28.85;;;10.68;;
75437;SDS011;64015;49.392;15.582;2022-11-20T08:26:33;28.08;;;10.25;;
75437;SDS011;64015;49.392;15.582;2022-11-20T08:28:59;28.00;;;10.38;;
75437;SDS011;64015;49.392;15.582;2022-11-20T08:31:25;29.00;;;10.60;;
75437;SDS011;64015;49.392;15.582;2022-11-20T08:33:52;28.27;;;10.48;;
75437;SDS011;64015;49.392;15.582;2022-11-20T08:36:18;23.02;;;10.05;;
75437;SDS011;64015;49.392;15.582;2022-11-20T08:38:47;28.17;;;11.07;;
75437;SDS011;64015;49.392;15.582;2022-11-20T08:41:14;27.65;;;11.38;;
75437;SDS011;64015;49.392;15.582;2022-11-20T08:43:50;26.13;;;10.75;;
75437;SDS011;64015;49.392;15.582;2022-11-20T08:46:16;25.88;;;10.13;;
75437;SDS011;64015;49.392;15.582;2022-11-20T08:48:42;29.50;;;10.95;;
75437;SDS011;64015;49.392;15.582;2022-11-20T08:51:08;27.30;;;10.50;;
75437;SDS011;64015;49.392;15.582;2022-11-20T08:53:35;31.98;;;11.73;;
75437;SDS011;64015;49.392;15.582;2022-11-20T08:56:00;27.05;;;10.73;;
75437;SDS011;64015;49.392;15.582;2022-11-20T08:58:26;26.08;;;10.85;;
75437;SDS011;64015;49.392;15.582;2022-11-20T09:00:52;29.88;;;10.57;;
75437;SDS011;64015;49.392;15.582;2022-11-20T09:03:18;25.88;;;10.60;;
75437;SDS011;64015;49.392;15.582;2022-11-20T09:05:44;32.03;;;12.35;;
75437;SDS011;64015;49.392;15.582;2022-11-20T09:08:10;30.60;;;11.85;;
75437;SDS011;64015;49.392;15.582;2022-11-20T09:10:35;30.33;;;11.38;;
75437;SDS011;64015;49.392;15.582;2022-11-20T09:13:02;29.23;;;11.43;;
75437;SDS011;64015;49.392;15.582;2022-11-20T09:15:27;27.67;;;12.82;;
75437;SDS011;64015;49.392;15.582;2022-11-20T09:17:54;33.60;;;11.95;;
75437;SDS011;64015;49.392;15.582;2022-11-20T09:20:20;27.95;;;11.02;;
75437;SDS011;64015;49.392;15.582;2022-11-20T09:22:47;29.20;;;10.93;;
75437;SDS011;64015;49.392;15.582;2022-11-20T09:25:12;30.63;;;11.52;;
75437;SDS011;64015;49.392;15.582;2022-11-20T09:27:38;25.70;;;10.13;;
75437;SDS011;64015;49.392;15.582;2022-11-20T09:30:04;27.83;;;11.20;;
75437;SDS011;64015;49.392;15.582;2022-11-20T09:32:30;27.65;;;11.00;;
75437;SDS011;64015;49.392;15.582;2022-11-20T09:34:56;28.63;;;10.73;;
75437;SDS011;64015;49.392;15.582;2022-11-20T09:37:22;30.20;;;11.40;;
75437;SDS011;64015;49.392;15.582;2022-11-20T09:39:47;31.27;;;12.80;;
75437;SDS011;64015;49.392;15.582;2022-11-20T09:56:27;27.13;;;10.10;;
75437;SDS011;64015;49.392;15.582;2022-11-20T10:01:23;24.75;;;9.80;;
75437;SDS011;64015;49.392;15.582;2022-11-20T10:06:32;29.33;;;11.05;;
75437;SDS011;64015;49.392;15.582;2022-11-20T10:09:13;28.90;;;11.63;;
75437;SDS011;64015;49.392;15.582;2022-11-20T10:14:38;26.83;;;10.95;;
75437;SDS011;64015;49.392;15.582;2022-11-20T10:17:24;29.48;;;10.65;;
75437;SDS011;64015;49.392;15.582;2022-11-20T10:20:14;33.35;;;13.10;;
75437;SDS011;64015;49.392;15.582;2022-11-20T10:31:26;30.67;;;12.38;;
75437;SDS011;64015;49.392;15.582;2022-11-20T10:33:56;27.02;;;11.20;;
75437;SDS011;64015;49.392;15.582;2022-11-20T10:36:27;27.33;;;10.85;;
75437;SDS011;64015;49.392;15.582;2022-11-20T10:39:14;28.77;;;11.38;;
75437;SDS011;64015;49.392;15.582;2022-11-20T10:41:42;28.58;;;10.80;;
75437;SDS011;64015;49.392;15.582;2022-11-20T10:44:15;30.20;;;11.43;;
75437;SDS011;64015;49.392;15.582;2022-11-20T10:47:05;30.30;;;10.93;;
75437;SDS011;64015;49.392;15.582;2022-11-20T10:49:35;25.40;;;10.32;;
75437;SDS011;64015;49.392;15.582;2022-11-20T10:52:22;26.35;;;11.25;;
75437;SDS011;64015;49.392;15.582;2022-11-20T11:00:26;40.50;;;14.05;;
75437;SDS011;64015;49.392;15.582;2022-11-20T11:02:52;42.30;;;15.02;;
75437;SDS011;64015;49.392;15.582;2022-11-20T11:07:46;39.15;;;14.75;;
75437;SDS011;64015;49.392;15.582;2022-11-20T11:10:20;40.53;;;16.38;;
75437;SDS011;64015;49.392;15.582;2022-11-20T11:12:52;42.05;;;15.60;;
75437;SDS011;64015;49.392;15.582;2022-11-20T11:15:36;39.17;;;16.00;;
75437;SDS011;64015;49.392;15.582;2022-11-20T11:18:04;32.95;;;12.07;;
75437;SDS011;64015;49.392;15.582;2022-11-20T11:20:31;32.97;;;12.20;;
75437;SDS011;64015;49.392;15.582;2022-11-20T11:23:02;27.70;;;11.40;;
75437;SDS011;64015;49.392;15.582;2022-11-20T11:28:01;25.88;;;10.15;;
75437;SDS011;64015;49.392;15.582;2022-11-20T11:30:28;27.00;;;11.05;;
75437;SDS011;64015;49.392;15.582;2022-11-20T11:33:08;29.38;;;10.38;;
75437;SDS011;64015;49.392;15.582;2022-11-20T11:35:46;29.48;;;11.15;;
75437;SDS011;64015;49.392;15.582;2022-11-20T11:38:15;25.38;;;9.38;;
75437;SDS011;64015;49.392;15.582;2022-11-20T11:40:44;24.40;;;9.73;;
75437;SDS011;64015;49.392;15.582;2022-11-20T11:43:17;30.48;;;10.63;;
75437;SDS011;64015;49.392;15.582;2022-11-20T11:48:31;29.83;;;10.38;;
75437;SDS011;64015;49.392;15.582;2022-11-20T11:50:57;26.10;;;9.70;;
75437;SDS011;64015;49.392;15.582;2022-11-20T11:53:23;30.23;;;10.75;;
75437;SDS011;64015;49.392;15.582;2022-11-20T11:56:07;30.85;;;11.13;;
75437;SDS011;64015;49.392;15.582;2022-11-20T11:58:45;26.52;;;11.80;;
75437;SDS011;64015;49.392;15.582;2022-11-20T12:04:04;30.13;;;10.90;;
75437;SDS011;64015;49.392;15.582;2022-11-20T12:06:36;30.30;;;10.90;;
75437;SDS011;64015;49.392;15.582;2022-11-20T12:09:05;30.05;;;10.50;;
75437;SDS011;64015;49.392;15.582;2022-11-20T12:14:21;28.73;;;11.15;;
75437;SDS011;64015;49.392;15.582;2022-11-20T12:16:58;37.20;;;11.68;;
75437;SDS011;64015;49.392;15.582;2022-11-20T12:19:23;30.13;;;11.25;;
75437;SDS011;64015;49.392;15.582;2022-11-20T12:22:06;30.63;;;11.00;;
75437;SDS011;64015;49.392;15.582;2022-11-20T12:31:02;23.10;;;8.77;;
75437;SDS011;64015;49.392;15.582;2022-11-20T12:33:44;25.02;;;9.25;;
75437;SDS011;64015;49.392;15.582;2022-11-20T12:36:17;35.53;;;13.68;;
75437;SDS011;64015;49.392;15.582;2022-11-20T12:44:35;28.52;;;10.23;;
75437;SDS011;64015;49.392;15.582;2022-11-20T12:47:45;29.80;;;9.95;;
75437;SDS011;64015;49.392;15.582;2022-11-20T13:01:49;27.10;;;10.70;;
75437;SDS011;64015;49.392;15.582;2022-11-20T13:07:05;24.35;;;10.38;;
75437;SDS011;64015;49.392;15.582;2022-11-20T13:09:35;23.33;;;9.20;;
75437;SDS011;64015;49.392;15.582;2022-11-20T13:12:08;31.20;;;11.25;;
75437;SDS011;64015;49.392;15.582;2022-11-20T13:17:48;34.08;;;13.25;;
75437;SDS011;64015;49.392;15.582;2022-11-20T13:20:19;32.83;;;13.45;;
75437;SDS011;64015;49.392;15.582;2022-11-20T13:22:51;32.00;;;12.85;;
75437;SDS011;64015;49.392;15.582;2022-11-20T13:25:24;36.35;;;12.75;;
75437;SDS011;64015;49.392;15.582;2022-11-20T13:27:52;30.48;;;12.52;;
75437;SDS011;64015;49.392;15.582;2022-11-20T13:32:50;29.05;;;10.82;;
75437;SDS011;64015;49.392;15.582;2022-11-20T13:38:02;31.42;;;10.70;;
75437;SDS011;64015;49.392;15.582;2022-11-20T13:40:34;28.98;;;10.73;;
75437;SDS011;64015;49.392;15.582;2022-11-20T13:43:04;32.25;;;12.15;;
75437;SDS011;64015;49.392;15.582;2022-11-20T13:45:36;30.42;;;10.63;;
75437;SDS011;64015;49.392;15.582;2022-11-20T13:48:04;33.45;;;12.68;;
75437;SDS011;64015;49.392;15.582;2022-11-20T13:59:31;34.40;;;12.52;;
75437;SDS011;64015;49.392;15.582;2022-11-20T14:02:13;35.67;;;13.57;;
75437;SDS011;64015;49.392;15.582;2022-11-20T14:04:42;34.78;;;13.32;;
75437;SDS011;64015;49.392;15.582;2022-11-20T14:07:12;30.92;;;11.18;;
75437;SDS011;64015;49.392;15.582;2022-11-20T14:09:37;37.67;;;14.40;;
75437;SDS011;64015;49.392;15.582;2022-11-20T14:12:12;30.27;;;13.07;;
75437;SDS011;64015;49.392;15.582;2022-11-20T14:14:47;29.52;;;12.05;;
75437;SDS011;64015;49.392;15.582;2022-11-20T14:17:18;34.03;;;13.55;;
75437;SDS011;64015;49.392;15.582;2022-11-20T14:19:46;35.47;;;13.93;;
75437;SDS011;64015;49.392;15.582;2022-11-20T14:24:47;34.03;;;13.43;;
75437;SDS011;64015;49.392;15.582;2022-11-20T14:27:15;36.25;;;13.93;;
75437;SDS011;64015;49.392;15.582;2022-11-20T14:29:43;28.38;;;10.82;;
75437;SDS011;64015;49.392;15.582;2022-11-20T14:32:11;28.27;;;10.93;;
75437;SDS011;64015;49.392;15.582;2022-11-20T14:34:40;33.15;;;10.52;;
75437;SDS011;64015;49.392;15.582;2022-11-20T14:37:12;26.83;;;11.98;;
75437;SDS011;64015;49.392;15.582;2022-11-20T14:39:51;29.08;;;10.73;;
75437;SDS011;64015;49.392;15.582;2022-11-20T14:42:22;29.13;;;11.27;;
75437;SDS011;64015;49.392;15.582;2022-11-20T14:44:49;28.83;;;11.32;;
75437;SDS011;64015;49.392;15.582;2022-11-20T14:47:18;28.25;;;10.85;;
75437;SDS011;64015;49.392;15.582;2022-11-20T14:49:46;28.92;;;11.32;;
75437;SDS011;64015;49.392;15.582;2022-11-20T14:52:13;27.55;;;11.20;;
75437;SDS011;64015;49.392;15.582;2022-11-20T14:54:50;28.52;;;10.65;;
75437;SDS011;64015;49.392;15.582;2022-11-20T15:02:44;33.60;;;11.20;;
75437;SDS011;64015;49.392;15.582;2022-11-20T15:05:11;33.47;;;11.85;;
75437;SDS011;64015;49.392;15.582;2022-11-20T15:07:38;27.70;;;11.10;;
75437;SDS011;64015;49.392;15.582;2022-11-20T15:10:09;30.92;;;12.13;;
75437;SDS011;64015;49.392;15.582;2022-11-20T15:12:49;31.00;;;12.02;;
75437;SDS011;64015;49.392;15.582;2022-11-20T15:15:18;36.10;;;13.13;;
75437;SDS011;64015;49.392;15.582;2022-11-20T15:17:54;27.52;;;11.40;;
75437;SDS011;64015;49.392;15.582;2022-11-20T15:20:19;31.67;;;11.88;;
75437;SDS011;64015;49.392;15.582;2022-11-20T15:22:48;31.63;;;11.38;;
75437;SDS011;64015;49.392;15.582;2022-11-20T15:25:14;31.73;;;12.27;;
75437;SDS011;64015;49.392;15.582;2022-11-20T15:27:43;27.95;;;11.07;;
75437;SDS011;64015;49.392;15.582;2022-11-20T15:30:17;26.58;;;10.27;;
75437;SDS011;64015;49.392;15.582;2022-11-20T15:32:44;33.50;;;13.73;;
75437;SDS011;64015;49.392;15.582;2022-11-20T15:35:11;45.60;;;17.27;;
75437;SDS011;64015;49.392;15.582;2022-11-20T15:37:37;34.88;;;12.63;;
75437;SDS011;64015;49.392;15.582;2022-11-20T15:40:03;29.50;;;11.65;;
75437;SDS011;64015;49.392;15.582;2022-11-20T15:42:30;27.10;;;11.60;;
75437;SDS011;64015;49.392;15.582;2022-11-20T15:44:55;32.65;;;12.65;;
75437;SDS011;64015;49.392;15.582;2022-11-20T15:47:26;32.63;;;13.48;;
75437;SDS011;64015;49.392;15.582;2022-11-20T15:49:55;31.40;;;11.25;;
75437;SDS011;64015;49.392;15.582;2022-11-20T15:52:21;28.52;;;11.18;;
75437;SDS011;64015;49.392;15.582;2022-11-20T15:54:46;30.92;;;11.68;;
75437;SDS011;64015;49.392;15.582;2022-11-20T15:57:12;30.70;;;12.85;;
75437;SDS011;64015;49.392;15.582;2022-11-20T15:59:38;32.22;;;13.25;;
75437;SDS011;64015;49.392;15.582;2022-11-20T16:02:13;37.70;;;16.45;;
75437;SDS011;64015;49.392;15.582;2022-11-20T16:04:40;36.22;;;16.27;;
75437;SDS011;64015;49.392;15.582;2022-11-20T16:07:06;46.15;;;17.35;;
75437;SDS011;64015;49.392;15.582;2022-11-20T16:09:32;46.35;;;23.60;;
75437;SDS011;64015;49.392;15.582;2022-11-20T16:11:58;40.38;;;18.17;;
75437;SDS011;64015;49.392;15.582;2022-11-20T16:14:26;37.38;;;16.05;;